sensor_id;sensor_type;location;lat;lon;timestamp;P1;durP1;ratioP1;P2;durP2;ratioP2
28802;SDS011;15949;55.656;37.422;2024-02-14T00:00:57;18.58;;;8.10;;
28802;SDS011;15949;55.656;37.422;2024-02-14T00:06:03;17.23;;;8.07;;
28802;SDS011;15949;55.656;37.422;2024-02-14T00:11:10;19.90;;;8.65;;
28802;SDS011;15949;55.656;37.422;2024-02-14T00:16:16;18.63;;;8.05;;
28802;SDS011;15949;55.656;37.422;2024-02-14T00:21:22;16.77;;;8.02;;
28802;SDS011;15949;55.656;37.422;2024-02-14T00:26:29;16.50;;;8.27;;
28802;SDS011;15949;55.656;37.422;2024-02-14T00:31:34;17.30;;;8.07;;
28802;SDS011;15949;55.656;37.422;2024-02-14T00:36:40;19.20;;;7.75;;
28802;SDS011;15949;55.656;37.422;2024-02-14T00:41:46;18.65;;;7.90;;
28802;SDS011;15949;55.656;37.422;2024-02-14T00:46:56;17.70;;;7.80;;
28802;SDS011;15949;55.656;37.422;2024-02-14T00:52:04;17.33;;;8.18;;
28802;SDS011;15949;55.656;37.422;2024-02-14T00:57:10;15.52;;;7.68;;
28802;SDS011;15949;55.656;37.422;2024-02-14T01:02:16;14.60;;;7.68;;
28802;SDS011;15949;55.656;37.422;2024-02-14T01:07:23;16.92;;;7.88;;
28802;SDS011;15949;55.656;37.422;2024-02-14T01:12:29;17.92;;;7.97;;
28802;SDS011;15949;55.656;37.422;2024-02-14T01:17:35;18.10;;;8.35;;
28802;SDS011;15949;55.656;37.422;2024-02-14T01:22:43;17.65;;;7.78;;
28802;SDS011;15949;55.656;37.422;2024-02-14T01:27:51;15.13;;;7.22;;
28802;SDS011;15949;55.656;37.422;2024-02-14T01:32:57;16.25;;;8.07;;
28802;SDS011;15949;55.656;37.422;2024-02-14T01:38:06;16.73;;;7.50;;
28802;SDS011;15949;55.656;37.422;2024-02-14T01:43:12;17.05;;;8.32;;
28802;SDS011;15949;55.656;37.422;2024-02-14T01:48:19;15.30;;;7.75;;
28802;SDS011;15949;55.656;37.422;2024-02-14T01:53:25;18.73;;;7.05;;
28802;SDS011;15949;55.656;37.422;2024-02-14T01:58:34;15.85;;;7.68;;
28802;SDS011;15949;55.656;37.422;2024-02-14T02:03:40;15.55;;;7.55;;
28802;SDS011;15949;55.656;37.422;2024-02-14T02:08:47;16.48;;;7.28;;
28802;SDS011;15949;55.656;37.422;2024-02-14T02:13:53;20.67;;;7.80;;
28802;SDS011;15949;55.656;37.422;2024-02-14T02:18:58;17.17;;;7.80;;
28802;SDS011;15949;55.656;37.422;2024-02-14T02:24:04;14.75;;;6.93;;
28802;SDS011;15949;55.656;37.422;2024-02-14T02:29:10;17.70;;;7.00;;
28802;SDS011;15949;55.656;37.422;2024-02-14T02:34:16;19.30;;;7.78;;
28802;SDS011;15949;55.656;37.422;2024-02-14T02:39:23;14.75;;;7.20;;
28802;SDS011;15949;55.656;37.422;2024-02-14T02:44:28;16.75;;;7.63;;
28802;SDS011;15949;55.656;37.422;2024-02-14T02:49:34;16.20;;;7.28;;
28802;SDS011;15949;55.656;37.422;2024-02-14T02:54:42;12.73;;;6.00;;
28802;SDS011;15949;55.656;37.422;2024-02-14T02:59:49;17.92;;;7.32;;
28802;SDS011;15949;55.656;37.422;2024-02-14T03:04:54;13.32;;;7.25;;
28802;SDS011;15949;55.656;37.422;2024-02-14T03:10:00;16.85;;;7.05;;
28802;SDS011;15949;55.656;37.422;2024-02-14T03:15:05;16.10;;;7.03;;
28802;SDS011;15949;55.656;37.422;2024-02-14T03:20:15;15.70;;;7.00;;
28802;SDS011;15949;55.656;37.422;2024-02-14T03:25:22;17.17;;;7.68;;
28802;SDS011;15949;55.656;37.422;2024-02-14T03:30:28;16.98;;;7.53;;
28802;SDS011;15949;55.656;37.422;2024-02-14T03:35:34;21.38;;;7.30;;
28802;SDS011;15949;55.656;37.422;2024-02-14T03:40:40;17.63;;;7.15;;
28802;SDS011;15949;55.656;37.422;2024-02-14T03:45:47;17.50;;;7.10;;
28802;SDS011;15949;55.656;37.422;2024-02-14T03:50:52;16.25;;;7.20;;
28802;SDS011;15949;55.656;37.422;2024-02-14T03:55:58;17.38;;;7.07;;
28802;SDS011;15949;55.656;37.422;2024-02-14T04:01:04;17.48;;;7.55;;
28802;SDS011;15949;55.656;37.422;2024-02-14T04:06:10;14.75;;;6.90;;
28802;SDS011;15949;55.656;37.422;2024-02-14T04:11:16;18.58;;;7.43;;
28802;SDS011;15949;55.656;37.422;2024-02-14T04:16:21;17.98;;;7.25;;
28802;SDS011;15949;55.656;37.422;2024-02-14T04:21:27;19.70;;;7.07;;
28802;SDS011;15949;55.656;37.422;2024-02-14T04:26:33;18.38;;;7.40;;
28802;SDS011;15949;55.656;37.422;2024-02-14T04:31:39;15.25;;;7.15;;
28802;SDS011;15949;55.656;37.422;2024-02-14T04:36:45;19.38;;;7.38;;
28802;SDS011;15949;55.656;37.422;2024-02-14T04:41:50;13.05;;;6.65;;
28802;SDS011;15949;55.656;37.422;2024-02-14T04:46:57;15.30;;;6.72;;
28802;SDS011;15949;55.656;37.422;2024-02-14T04:57:12;14.25;;;6.57;;
28802;SDS011;15949;55.656;37.422;2024-02-14T05:02:19;16.70;;;7.03;;
28802;SDS011;15949;55.656;37.422;2024-02-14T05:07:24;13.48;;;6.88;;
28802;SDS011;15949;55.656;37.422;2024-02-14T05:12:30;17.23;;;7.32;;
28802;SDS011;15949;55.656;37.422;2024-02-14T05:17:36;14.25;;;7.25;;
28802;SDS011;15949;55.656;37.422;2024-02-14T05:22:41;16.88;;;7.43;;
28802;SDS011;15949;55.656;37.422;2024-02-14T05:27:47;14.40;;;7.13;;
28802;SDS011;15949;55.656;37.422;2024-02-14T05:32:52;19.23;;;7.53;;
28802;SDS011;15949;55.656;37.422;2024-02-14T05:37:58;16.70;;;7.68;;
28802;SDS011;15949;55.656;37.422;2024-02-14T05:43:05;19.45;;;7.55;;
28802;SDS011;15949;55.656;37.422;2024-02-14T05:48:12;17.52;;;7.53;;
28802;SDS011;15949;55.656;37.422;2024-02-14T05:53:19;21.55;;;7.63;;
28802;SDS011;15949;55.656;37.422;2024-02-14T05:58:25;16.90;;;7.40;;
28802;SDS011;15949;55.656;37.422;2024-02-14T06:03:32;18.50;;;7.10;;
28802;SDS011;15949;55.656;37.422;2024-02-14T06:08:38;14.88;;;7.60;;
28802;SDS011;15949;55.656;37.422;2024-02-14T06:13:43;16.40;;;7.20;;
28802;SDS011;15949;55.656;37.422;2024-02-14T06:18:49;14.75;;;7.35;;
28802;SDS011;15949;55.656;37.422;2024-02-14T06:23:54;17.60;;;7.40;;
28802;SDS011;15949;55.656;37.422;2024-02-14T06:29:00;15.63;;;7.43;;
28802;SDS011;15949;55.656;37.422;2024-02-14T06:34:06;17.27;;;7.50;;
28802;SDS011;15949;55.656;37.422;2024-02-14T06:39:13;13.77;;;7.03;;
28802;SDS011;15949;55.656;37.422;2024-02-14T06:44:18;16.45;;;7.57;;
28802;SDS011;15949;55.656;37.422;2024-02-14T06:49:24;14.93;;;7.22;;
28802;SDS011;15949;55.656;37.422;2024-02-14T06:54:30;16.20;;;7.18;;
28802;SDS011;15949;55.656;37.422;2024-02-14T06:59:35;19.77;;;7.20;;
28802;SDS011;15949;55.656;37.422;2024-02-14T07:04:43;17.08;;;7.78;;
28802;SDS011;15949;55.656;37.422;2024-02-14T07:09:48;21.80;;;7.43;;
28802;SDS011;15949;55.656;37.422;2024-02-14T07:14:54;16.75;;;7.65;;
28802;SDS011;15949;55.656;37.422;2024-02-14T07:19:59;13.07;;;6.72;;
28802;SDS011;15949;55.656;37.422;2024-02-14T07:25:06;14.13;;;7.30;;
28802;SDS011;15949;55.656;37.422;2024-02-14T07:30:13;13.43;;;6.82;;
28802;SDS011;15949;55.656;37.422;2024-02-14T07:35:19;13.55;;;6.18;;
28802;SDS011;15949;55.656;37.422;2024-02-14T07:40:25;16.02;;;6.80;;
28802;SDS011;15949;55.656;37.422;2024-02-14T07:45:32;17.70;;;7.00;;
28802;SDS011;15949;55.656;37.422;2024-02-14T07:50:38;10.63;;;5.97;;
28802;SDS011;15949;55.656;37.422;2024-02-14T07:55:44;14.52;;;6.72;;
28802;SDS011;15949;55.656;37.422;2024-02-14T08:00:49;17.70;;;7.15;;
28802;SDS011;15949;55.656;37.422;2024-02-14T08:05:55;11.63;;;6.28;;
28802;SDS011;15949;55.656;37.422;2024-02-14T08:11:01;12.63;;;6.53;;
28802;SDS011;15949;55.656;37.422;2024-02-14T08:16:07;17.70;;;7.10;;
28802;SDS011;15949;55.656;37.422;2024-02-14T08:21:12;13.07;;;6.43;;
28802;SDS011;15949;55.656;37.422;2024-02-14T08:26:18;16.65;;;6.78;;
28802;SDS011;15949;55.656;37.422;2024-02-14T08:31:24;16.13;;;6.60;;
28802;SDS011;15949;55.656;37.422;2024-02-14T08:36:29;15.13;;;7.05;;
28802;SDS011;15949;55.656;37.422;2024-02-14T08:41:38;13.23;;;6.85;;
28802;SDS011;15949;55.656;37.422;2024-02-14T08:46:46;14.70;;;6.88;;
28802;SDS011;15949;55.656;37.422;2024-02-14T08:51:53;13.82;;;6.53;;
28802;SDS011;15949;55.656;37.422;2024-02-14T08:56:59;15.10;;;7.03;;
28802;SDS011;15949;55.656;37.422;2024-02-14T09:02:06;23.73;;;7.15;;
28802;SDS011;15949;55.656;37.422;2024-02-14T09:07:11;16.67;;;6.60;;
28802;SDS011;15949;55.656;37.422;2024-02-14T09:12:18;12.65;;;6.53;;
28802;SDS011;15949;55.656;37.422;2024-02-14T09:17:24;15.57;;;6.68;;
28802;SDS011;15949;55.656;37.422;2024-02-14T09:22:29;12.93;;;6.28;;
28802;SDS011;15949;55.656;37.422;2024-02-14T09:27:35;11.45;;;6.47;;
28802;SDS011;15949;55.656;37.422;2024-02-14T09:32:41;11.93;;;6.72;;
28802;SDS011;15949;55.656;37.422;2024-02-14T09:37:46;13.55;;;6.32;;
28802;SDS011;15949;55.656;37.422;2024-02-14T09:42:55;14.27;;;6.97;;
28802;SDS011;15949;55.656;37.422;2024-02-14T09:48:03;15.15;;;6.97;;
28802;SDS011;15949;55.656;37.422;2024-02-14T09:53:09;12.32;;;5.97;;
28802;SDS011;15949;55.656;37.422;2024-02-14T09:58:16;10.45;;;6.28;;
28802;SDS011;15949;55.656;37.422;2024-02-14T10:03:22;13.27;;;6.65;;
28802;SDS011;15949;55.656;37.422;2024-02-14T10:08:28;13.73;;;6.50;;
28802;SDS011;15949;55.656;37.422;2024-02-14T10:13:34;15.10;;;6.82;;
28802;SDS011;15949;55.656;37.422;2024-02-14T10:18:40;15.23;;;6.90;;
28802;SDS011;15949;55.656;37.422;2024-02-14T10:23:46;15.00;;;6.97;;
28802;SDS011;15949;55.656;37.422;2024-02-14T10:28:52;17.35;;;7.25;;
28802;SDS011;15949;55.656;37.422;2024-02-14T10:33:57;16.13;;;7.22;;
28802;SDS011;15949;55.656;37.422;2024-02-14T10:39:04;16.10;;;7.57;;
28802;SDS011;15949;55.656;37.422;2024-02-14T10:44:12;21.38;;;7.32;;
28802;SDS011;15949;55.656;37.422;2024-02-14T10:49:19;16.83;;;7.28;;
28802;SDS011;15949;55.656;37.422;2024-02-14T10:54:26;17.50;;;7.38;;
28802;SDS011;15949;55.656;37.422;2024-02-14T10:59:33;14.98;;;7.07;;
28802;SDS011;15949;55.656;37.422;2024-02-14T11:04:40;14.05;;;6.82;;
28802;SDS011;15949;55.656;37.422;2024-02-14T11:09:46;12.90;;;7.30;;
28802;SDS011;15949;55.656;37.422;2024-02-14T11:14:51;12.95;;;6.95;;
28802;SDS011;15949;55.656;37.422;2024-02-14T11:25:38;14.65;;;7.55;;
28802;SDS011;15949;55.656;37.422;2024-02-14T11:30:44;17.08;;;7.28;;
28802;SDS011;15949;55.656;37.422;2024-02-14T11:35:50;14.93;;;7.43;;
28802;SDS011;15949;55.656;37.422;2024-02-14T11:40:56;14.60;;;7.70;;
28802;SDS011;15949;55.656;37.422;2024-02-14T11:46:02;16.00;;;8.10;;
28802;SDS011;15949;55.656;37.422;2024-02-14T11:51:09;16.33;;;7.47;;
28802;SDS011;15949;55.656;37.422;2024-02-14T11:56:15;15.80;;;7.88;;
28802;SDS011;15949;55.656;37.422;2024-02-14T12:01:20;15.10;;;7.18;;
28802;SDS011;15949;55.656;37.422;2024-02-14T12:06:27;16.05;;;7.50;;
28802;SDS011;15949;55.656;37.422;2024-02-14T12:11:37;14.55;;;7.90;;
28802;SDS011;15949;55.656;37.422;2024-02-14T12:16:44;13.27;;;7.80;;
28802;SDS011;15949;55.656;37.422;2024-02-14T12:21:50;17.25;;;7.93;;
28802;SDS011;15949;55.656;37.422;2024-02-14T12:26:55;17.58;;;7.65;;
28802;SDS011;15949;55.656;37.422;2024-02-14T12:32:07;15.75;;;8.07;;
28802;SDS011;15949;55.656;37.422;2024-02-14T12:37:13;15.07;;;7.90;;
28802;SDS011;15949;55.656;37.422;2024-02-14T12:42:19;13.38;;;7.70;;
28802;SDS011;15949;55.656;37.422;2024-02-14T12:47:30;15.73;;;7.75;;
28802;SDS011;15949;55.656;37.422;2024-02-14T12:52:38;15.73;;;7.37;;
28802;SDS011;15949;55.656;37.422;2024-02-14T12:57:44;16.02;;;7.68;;
28802;SDS011;15949;55.656;37.422;2024-02-14T13:02:51;14.20;;;7.53;;
28802;SDS011;15949;55.656;37.422;2024-02-14T13:07:57;16.50;;;7.32;;
28802;SDS011;15949;55.656;37.422;2024-02-14T13:13:03;18.92;;;7.07;;
28802;SDS011;15949;55.656;37.422;2024-02-14T13:18:09;12.32;;;6.80;;
28802;SDS011;15949;55.656;37.422;2024-02-14T13:23:15;13.90;;;7.25;;
28802;SDS011;15949;55.656;37.422;2024-02-14T13:28:21;15.20;;;7.10;;
28802;SDS011;15949;55.656;37.422;2024-02-14T13:33:27;14.82;;;6.90;;
28802;SDS011;15949;55.656;37.422;2024-02-14T13:38:32;12.60;;;7.05;;
28802;SDS011;15949;55.656;37.422;2024-02-14T13:43:38;13.75;;;7.22;;
28802;SDS011;15949;55.656;37.422;2024-02-14T13:48:43;15.57;;;6.70;;
28802;SDS011;15949;55.656;37.422;2024-02-14T13:53:49;13.07;;;6.85;;
28802;SDS011;15949;55.656;37.422;2024-02-14T13:58:55;14.10;;;7.18;;
28802;SDS011;15949;55.656;37.422;2024-02-14T14:04:00;13.75;;;6.32;;
28802;SDS011;15949;55.656;37.422;2024-02-14T14:09:06;12.52;;;6.95;;
28802;SDS011;15949;55.656;37.422;2024-02-14T14:19:23;13.35;;;7.10;;
28802;SDS011;15949;55.656;37.422;2024-02-14T14:24:29;13.88;;;6.90;;
28802;SDS011;15949;55.656;37.422;2024-02-14T14:29:36;13.30;;;6.45;;
28802;SDS011;15949;55.656;37.422;2024-02-14T14:34:42;14.43;;;6.90;;
28802;SDS011;15949;55.656;37.422;2024-02-14T14:39:48;13.77;;;6.57;;
28802;SDS011;15949;55.656;37.422;2024-02-14T14:44:53;13.45;;;7.10;;
28802;SDS011;15949;55.656;37.422;2024-02-14T14:49:59;13.63;;;7.53;;
28802;SDS011;15949;55.656;37.422;2024-02-14T14:55:05;14.20;;;7.28;;
28802;SDS011;15949;55.656;37.422;2024-02-14T15:00:11;15.32;;;7.57;;
28802;SDS011;15949;55.656;37.422;2024-02-14T15:05:18;16.73;;;6.95;;
28802;SDS011;15949;55.656;37.422;2024-02-14T15:10:24;16.38;;;7.15;;
28802;SDS011;15949;55.656;37.422;2024-02-14T15:15:29;14.55;;;7.50;;
28802;SDS011;15949;55.656;37.422;2024-02-14T15:20:35;13.77;;;6.82;;
28802;SDS011;15949;55.656;37.422;2024-02-14T15:25:44;15.70;;;7.20;;
28802;SDS011;15949;55.656;37.422;2024-02-14T15:30:50;13.27;;;7.63;;
28802;SDS011;15949;55.656;37.422;2024-02-14T15:36:14;15.60;;;7.30;;
28802;SDS011;15949;55.656;37.422;2024-02-14T15:41:20;17.63;;;7.88;;
28802;SDS011;15949;55.656;37.422;2024-02-14T15:46:26;15.77;;;7.20;;
28802;SDS011;15949;55.656;37.422;2024-02-14T15:51:31;12.23;;;6.97;;
28802;SDS011;15949;55.656;37.422;2024-02-14T15:56:37;14.95;;;8.20;;
28802;SDS011;15949;55.656;37.422;2024-02-14T16:01:43;15.50;;;7.90;;
28802;SDS011;15949;55.656;37.422;2024-02-14T16:06:48;15.18;;;7.68;;
28802;SDS011;15949;55.656;37.422;2024-02-14T16:11:54;16.23;;;7.55;;
28802;SDS011;15949;55.656;37.422;2024-02-14T16:16:59;18.15;;;8.35;;
28802;SDS011;15949;55.656;37.422;2024-02-14T16:22:05;16.65;;;8.32;;
28802;SDS011;15949;55.656;37.422;2024-02-14T16:27:10;14.60;;;7.72;;
28802;SDS011;15949;55.656;37.422;2024-02-14T16:32:16;15.10;;;8.68;;
28802;SDS011;15949;55.656;37.422;2024-02-14T16:37:23;14.02;;;7.60;;
28802;SDS011;15949;55.656;37.422;2024-02-14T16:42:29;16.88;;;7.72;;
28802;SDS011;15949;55.656;37.422;2024-02-14T16:47:34;17.10;;;8.02;;
28802;SDS011;15949;55.656;37.422;2024-02-14T16:52:40;16.27;;;7.53;;
28802;SDS011;15949;55.656;37.422;2024-02-14T16:57:45;18.75;;;8.30;;
28802;SDS011;15949;55.656;37.422;2024-02-14T17:02:51;17.55;;;8.38;;
28802;SDS011;15949;55.656;37.422;2024-02-14T17:07:57;16.73;;;8.45;;
28802;SDS011;15949;55.656;37.422;2024-02-14T17:13:02;16.48;;;8.25;;
28802;SDS011;15949;55.656;37.422;2024-02-14T17:18:08;16.23;;;8.27;;
28802;SDS011;15949;55.656;37.422;2024-02-14T17:23:14;15.55;;;8.10;;
28802;SDS011;15949;55.656;37.422;2024-02-14T17:28:20;15.80;;;8.82;;
28802;SDS011;15949;55.656;37.422;2024-02-14T17:33:26;17.63;;;8.05;;
28802;SDS011;15949;55.656;37.422;2024-02-14T17:38:31;17.50;;;8.38;;
28802;SDS011;15949;55.656;37.422;2024-02-14T17:43:37;18.65;;;8.07;;
28802;SDS011;15949;55.656;37.422;2024-02-14T17:48:43;19.20;;;9.10;;
28802;SDS011;15949;55.656;37.422;2024-02-14T17:53:48;19.15;;;7.75;;
28802;SDS011;15949;55.656;37.422;2024-02-14T17:58:55;16.25;;;8.13;;
28802;SDS011;15949;55.656;37.422;2024-02-14T18:04:00;16.33;;;8.50;;
28802;SDS011;15949;55.656;37.422;2024-02-14T18:09:09;13.32;;;7.18;;
28802;SDS011;15949;55.656;37.422;2024-02-14T18:14:15;14.43;;;7.63;;
28802;SDS011;15949;55.656;37.422;2024-02-14T18:19:20;15.55;;;7.80;;
28802;SDS011;15949;55.656;37.422;2024-02-14T18:24:26;15.63;;;7.40;;
28802;SDS011;15949;55.656;37.422;2024-02-14T18:29:32;17.45;;;7.65;;
28802;SDS011;15949;55.656;37.422;2024-02-14T18:34:37;12.73;;;6.82;;
28802;SDS011;15949;55.656;37.422;2024-02-14T18:39:43;15.07;;;7.85;;
28802;SDS011;15949;55.656;37.422;2024-02-14T18:44:49;13.70;;;7.05;;
28802;SDS011;15949;55.656;37.422;2024-02-14T18:49:54;15.55;;;8.00;;
28802;SDS011;15949;55.656;37.422;2024-02-14T18:55:00;17.27;;;7.90;;
28802;SDS011;15949;55.656;37.422;2024-02-14T19:00:06;14.38;;;7.60;;
28802;SDS011;15949;55.656;37.422;2024-02-14T19:05:15;19.52;;;8.55;;
28802;SDS011;15949;55.656;37.422;2024-02-14T19:10:20;15.80;;;8.23;;
28802;SDS011;15949;55.656;37.422;2024-02-14T19:15:26;16.10;;;8.20;;
28802;SDS011;15949;55.656;37.422;2024-02-14T19:20:32;14.95;;;8.20;;
28802;SDS011;15949;55.656;37.422;2024-02-14T19:25:38;16.20;;;7.70;;
28802;SDS011;15949;55.656;37.422;2024-02-14T19:30:43;14.93;;;7.70;;
28802;SDS011;15949;55.656;37.422;2024-02-14T19:35:49;18.92;;;8.25;;
28802;SDS011;15949;55.656;37.422;2024-02-14T19:40:56;16.90;;;7.78;;
28802;SDS011;15949;55.656;37.422;2024-02-14T19:46:02;20.65;;;8.15;;
28802;SDS011;15949;55.656;37.422;2024-02-14T19:51:07;18.00;;;8.25;;
28802;SDS011;15949;55.656;37.422;2024-02-14T19:56:13;16.17;;;7.97;;
28802;SDS011;15949;55.656;37.422;2024-02-14T20:01:19;17.10;;;7.95;;
28802;SDS011;15949;55.656;37.422;2024-02-14T20:06:25;14.27;;;7.20;;
28802;SDS011;15949;55.656;37.422;2024-02-14T20:11:30;16.77;;;8.25;;
28802;SDS011;15949;55.656;37.422;2024-02-14T20:16:36;17.40;;;8.18;;
28802;SDS011;15949;55.656;37.422;2024-02-14T20:21:42;14.55;;;7.13;;
28802;SDS011;15949;55.656;37.422;2024-02-14T20:26:48;20.70;;;8.48;;
28802;SDS011;15949;55.656;37.422;2024-02-14T20:31:54;15.75;;;8.13;;
28802;SDS011;15949;55.656;37.422;2024-02-14T20:36:59;15.05;;;8.52;;
28802;SDS011;15949;55.656;37.422;2024-02-14T20:42:06;18.98;;;8.10;;
28802;SDS011;15949;55.656;37.422;2024-02-14T20:47:11;16.38;;;8.13;;
28802;SDS011;15949;55.656;37.422;2024-02-14T20:52:18;18.33;;;7.78;;
28802;SDS011;15949;55.656;37.422;2024-02-14T20:57:24;16.65;;;8.07;;
28802;SDS011;15949;55.656;37.422;2024-02-14T21:02:30;15.85;;;7.68;;
28802;SDS011;15949;55.656;37.422;2024-02-14T21:07:36;21.95;;;8.10;;
28802;SDS011;15949;55.656;37.422;2024-02-14T21:12:42;16.27;;;7.75;;
28802;SDS011;15949;55.656;37.422;2024-02-14T21:17:48;19.48;;;8.20;;
28802;SDS011;15949;55.656;37.422;2024-02-14T21:22:54;15.70;;;7.90;;
28802;SDS011;15949;55.656;37.422;2024-02-14T21:28:00;18.65;;;8.43;;
28802;SDS011;15949;55.656;37.422;2024-02-14T21:33:05;18.13;;;7.72;;
28802;SDS011;15949;55.656;37.422;2024-02-14T21:38:12;18.85;;;7.72;;
28802;SDS011;15949;55.656;37.422;2024-02-14T21:43:20;20.80;;;7.75;;
28802;SDS011;15949;55.656;37.422;2024-02-14T21:48:25;15.02;;;7.38;;
28802;SDS011;15949;55.656;37.422;2024-02-14T21:53:31;15.93;;;7.07;;
28802;SDS011;15949;55.656;37.422;2024-02-14T21:58:37;12.80;;;6.85;;
28802;SDS011;15949;55.656;37.422;2024-02-14T22:03:42;14.35;;;7.25;;
28802;SDS011;15949;55.656;37.422;2024-02-14T22:08:48;15.15;;;7.80;;
28802;SDS011;15949;55.656;37.422;2024-02-14T22:13:53;15.38;;;7.75;;
28802;SDS011;15949;55.656;37.422;2024-02-14T22:18:59;15.90;;;7.95;;
28802;SDS011;15949;55.656;37.422;2024-02-14T22:29:56;15.70;;;7.45;;
28802;SDS011;15949;55.656;37.422;2024-02-14T22:35:02;18.85;;;7.25;;
28802;SDS011;15949;55.656;37.422;2024-02-14T22:40:07;20.67;;;7.93;;
28802;SDS011;15949;55.656;37.422;2024-02-14T22:45:13;18.73;;;7.50;;
28802;SDS011;15949;55.656;37.422;2024-02-14T22:50:19;15.00;;;7.45;;
28802;SDS011;15949;55.656;37.422;2024-02-14T22:55:25;13.82;;;7.47;;
28802;SDS011;15949;55.656;37.422;2024-02-14T23:00:32;14.70;;;7.38;;
28802;SDS011;15949;55.656;37.422;2024-02-14T23:05:38;21.60;;;8.02;;
28802;SDS011;15949;55.656;37.422;2024-02-14T23:10:45;20.92;;;8.23;;
28802;SDS011;15949;55.656;37.422;2024-02-14T23:15:51;17.60;;;7.78;;
28802;SDS011;15949;55.656;37.422;2024-02-14T23:20:57;18.42;;;7.88;;
28802;SDS011;15949;55.656;37.422;2024-02-14T23:26:03;15.95;;;6.75;;
28802;SDS011;15949;55.656;37.422;2024-02-14T23:31:09;15.45;;;7.43;;
28802;SDS011;15949;55.656;37.422;2024-02-14T23:36:16;16.95;;;7.70;;
28802;SDS011;15949;55.656;37.422;2024-02-14T23:41:22;19.70;;;8.05;;
28802;SDS011;15949;55.656;37.422;2024-02-14T23:46:28;18.40;;;8.13;;
28802;SDS011;15949;55.656;37.422;2024-02-14T23:51:38;18.63;;;7.75;;
28802;SDS011;15949;55.656;37.422;2024-02-14T23:56:44;21.38;;;8.52;;
